sensor_id;sensor_type;location;lat;lon;timestamp;P1;durP1;ratioP1;P2;durP2;ratioP2
57810;SDS011;43640;47.550;7.590;2022-10-16T00:00:54;9.18;;;4.07;;
57810;SDS011;43640;47.550;7.590;2022-10-16T00:02:56;7.20;;;4.00;;
57810;SDS011;43640;47.550;7.590;2022-10-16T00:05:00;6.85;;;3.78;;
57810;SDS011;43640;47.550;7.590;2022-10-16T00:07:02;4.45;;;3.47;;
57810;SDS011;43640;47.550;7.590;2022-10-16T00:09:04;8.07;;;3.80;;
57810;SDS011;43640;47.550;7.590;2022-10-16T00:11:06;7.82;;;3.92;;
57810;SDS011;43640;47.550;7.590;2022-10-16T00:13:21;7.10;;;3.53;;
57810;SDS011;43640;47.550;7.590;2022-10-16T00:15:30;5.43;;;3.08;;
57810;SDS011;43640;47.550;7.590;2022-10-16T00:17:34;6.72;;;2.75;;
57810;SDS011;43640;47.550;7.590;2022-10-16T00:19:35;5.40;;;2.95;;
57810;SDS011;43640;47.550;7.590;2022-10-16T00:21:40;6.95;;;2.55;;
57810;SDS011;43640;47.550;7.590;2022-10-16T00:23:44;3.42;;;2.60;;
57810;SDS011;43640;47.550;7.590;2022-10-16T00:25:57;5.53;;;2.83;;
57810;SDS011;43640;47.550;7.590;2022-10-16T00:28:01;4.40;;;2.53;;
57810;SDS011;43640;47.550;7.590;2022-10-16T00:30:05;5.93;;;2.97;;
57810;SDS011;43640;47.550;7.590;2022-10-16T00:32:21;7.65;;;2.47;;
57810;SDS011;43640;47.550;7.590;2022-10-16T00:34:31;6.95;;;3.20;;
57810;SDS011;43640;47.550;7.590;2022-10-16T00:36:37;2.88;;;1.95;;
57810;SDS011;43640;47.550;7.590;2022-10-16T00:38:47;4.25;;;2.42;;
57810;SDS011;43640;47.550;7.590;2022-10-16T00:53:02;4.60;;;2.50;;
57810;SDS011;43640;47.550;7.590;2022-10-16T00:55:30;5.13;;;2.80;;
57810;SDS011;43640;47.550;7.590;2022-10-16T00:58:03;3.92;;;2.60;;
57810;SDS011;43640;47.550;7.590;2022-10-16T01:21:50;5.80;;;3.33;;
57810;SDS011;43640;47.550;7.590;2022-10-16T01:40:01;6.78;;;2.95;;
57810;SDS011;43640;47.550;7.590;2022-10-16T01:42:22;3.42;;;2.50;;
57810;SDS011;43640;47.550;7.590;2022-10-16T01:44:37;4.27;;;2.60;;
57810;SDS011;43640;47.550;7.590;2022-10-16T01:46:42;6.60;;;2.85;;
57810;SDS011;43640;47.550;7.590;2022-10-16T01:48:48;6.07;;;2.58;;
57810;SDS011;43640;47.550;7.590;2022-10-16T01:54:04;5.22;;;2.95;;
57810;SDS011;43640;47.550;7.590;2022-10-16T01:56:16;4.20;;;2.80;;
57810;SDS011;43640;47.550;7.590;2022-10-16T01:58:40;6.15;;;2.65;;
57810;SDS011;43640;47.550;7.590;2022-10-16T02:03:43;8.85;;;3.30;;
57810;SDS011;43640;47.550;7.590;2022-10-16T02:06:10;10.05;;;3.22;;
57810;SDS011;43640;47.550;7.590;2022-10-16T02:09:07;6.88;;;3.80;;
57810;SDS011;43640;47.550;7.590;2022-10-16T02:11:38;5.28;;;2.80;;
57810;SDS011;43640;47.550;7.590;2022-10-16T02:14:06;8.32;;;3.05;;
57810;SDS011;43640;47.550;7.590;2022-10-16T02:19:40;5.07;;;2.83;;
57810;SDS011;43640;47.550;7.590;2022-10-16T02:21:50;5.35;;;3.00;;
57810;SDS011;43640;47.550;7.590;2022-10-16T02:26:13;5.35;;;3.45;;
57810;SDS011;43640;47.550;7.590;2022-10-16T02:28:50;5.25;;;2.97;;
57810;SDS011;43640;47.550;7.590;2022-10-16T02:30:58;7.00;;;3.17;;
57810;SDS011;43640;47.550;7.590;2022-10-16T02:33:10;4.75;;;2.80;;
57810;SDS011;43640;47.550;7.590;2022-10-16T02:35:49;7.00;;;2.67;;
57810;SDS011;43640;47.550;7.590;2022-10-16T02:38:02;7.55;;;2.75;;
57810;SDS011;43640;47.550;7.590;2022-10-16T02:40:04;8.07;;;2.65;;
57810;SDS011;43640;47.550;7.590;2022-10-16T02:42:10;5.60;;;2.65;;
57810;SDS011;43640;47.550;7.590;2022-10-16T02:44:11;5.75;;;3.05;;
57810;SDS011;43640;47.550;7.590;2022-10-16T02:46:13;4.45;;;2.72;;
57810;SDS011;43640;47.550;7.590;2022-10-16T02:48:14;4.07;;;2.55;;
57810;SDS011;43640;47.550;7.590;2022-10-16T02:50:16;6.70;;;2.78;;
57810;SDS011;43640;47.550;7.590;2022-10-16T02:52:17;5.28;;;2.60;;
57810;SDS011;43640;47.550;7.590;2022-10-16T02:54:18;4.95;;;3.00;;
57810;SDS011;43640;47.550;7.590;2022-10-16T02:56:20;6.25;;;2.90;;
57810;SDS011;43640;47.550;7.590;2022-10-16T02:58:21;5.35;;;2.90;;
57810;SDS011;43640;47.550;7.590;2022-10-16T03:00:22;4.40;;;2.70;;
57810;SDS011;43640;47.550;7.590;2022-10-16T03:02:24;5.00;;;2.80;;
57810;SDS011;43640;47.550;7.590;2022-10-16T03:04:25;5.45;;;2.72;;
57810;SDS011;43640;47.550;7.590;2022-10-16T03:06:27;7.60;;;3.10;;
57810;SDS011;43640;47.550;7.590;2022-10-16T03:08:28;7.32;;;2.95;;
57810;SDS011;43640;47.550;7.590;2022-10-16T03:10:30;6.35;;;3.05;;
57810;SDS011;43640;47.550;7.590;2022-10-16T03:12:31;5.25;;;2.55;;
57810;SDS011;43640;47.550;7.590;2022-10-16T03:14:33;6.60;;;3.00;;
57810;SDS011;43640;47.550;7.590;2022-10-16T03:16:34;5.05;;;2.40;;
57810;SDS011;43640;47.550;7.590;2022-10-16T03:18:36;6.10;;;2.35;;
57810;SDS011;43640;47.550;7.590;2022-10-16T03:20:38;4.43;;;2.85;;
57810;SDS011;43640;47.550;7.590;2022-10-16T03:22:39;5.50;;;2.22;;
57810;SDS011;43640;47.550;7.590;2022-10-16T03:24:40;4.90;;;2.22;;
57810;SDS011;43640;47.550;7.590;2022-10-16T03:26:42;5.07;;;3.17;;
57810;SDS011;43640;47.550;7.590;2022-10-16T03:28:43;5.32;;;2.45;;
57810;SDS011;43640;47.550;7.590;2022-10-16T03:30:44;5.05;;;2.05;;
57810;SDS011;43640;47.550;7.590;2022-10-16T03:32:46;4.07;;;2.40;;
57810;SDS011;43640;47.550;7.590;2022-10-16T03:34:47;2.95;;;2.42;;
57810;SDS011;43640;47.550;7.590;2022-10-16T03:36:48;5.57;;;2.40;;
57810;SDS011;43640;47.550;7.590;2022-10-16T03:38:50;5.65;;;2.60;;
57810;SDS011;43640;47.550;7.590;2022-10-16T03:40:51;3.70;;;2.50;;
57810;SDS011;43640;47.550;7.590;2022-10-16T03:42:52;7.03;;;2.67;;
57810;SDS011;43640;47.550;7.590;2022-10-16T03:44:56;7.30;;;2.72;;
57810;SDS011;43640;47.550;7.590;2022-10-16T03:46:57;4.53;;;2.67;;
57810;SDS011;43640;47.550;7.590;2022-10-16T03:48:58;7.97;;;2.83;;
57810;SDS011;43640;47.550;7.590;2022-10-16T03:51:00;4.80;;;3.08;;
57810;SDS011;43640;47.550;7.590;2022-10-16T03:53:01;4.82;;;2.80;;
57810;SDS011;43640;47.550;7.590;2022-10-16T03:55:03;5.10;;;2.72;;
57810;SDS011;43640;47.550;7.590;2022-10-16T03:57:04;4.63;;;2.60;;
57810;SDS011;43640;47.550;7.590;2022-10-16T03:59:05;4.40;;;2.67;;
57810;SDS011;43640;47.550;7.590;2022-10-16T04:01:07;4.15;;;2.85;;
57810;SDS011;43640;47.550;7.590;2022-10-16T04:03:08;5.63;;;2.60;;
57810;SDS011;43640;47.550;7.590;2022-10-16T04:05:10;3.88;;;2.60;;
57810;SDS011;43640;47.550;7.590;2022-10-16T04:07:11;4.13;;;2.58;;
57810;SDS011;43640;47.550;7.590;2022-10-16T04:09:12;6.05;;;3.30;;
57810;SDS011;43640;47.550;7.590;2022-10-16T04:11:14;5.45;;;2.65;;
57810;SDS011;43640;47.550;7.590;2022-10-16T04:13:15;4.45;;;2.45;;
57810;SDS011;43640;47.550;7.590;2022-10-16T04:15:16;3.58;;;2.17;;
57810;SDS011;43640;47.550;7.590;2022-10-16T04:17:18;4.72;;;2.35;;
57810;SDS011;43640;47.550;7.590;2022-10-16T04:19:19;4.97;;;2.63;;
57810;SDS011;43640;47.550;7.590;2022-10-16T04:21:21;4.32;;;2.45;;
57810;SDS011;43640;47.550;7.590;2022-10-16T04:23:23;6.05;;;2.42;;
57810;SDS011;43640;47.550;7.590;2022-10-16T04:25:24;4.57;;;2.50;;
57810;SDS011;43640;47.550;7.590;2022-10-16T04:27:26;7.05;;;2.40;;
57810;SDS011;43640;47.550;7.590;2022-10-16T04:29:28;5.85;;;2.47;;
57810;SDS011;43640;47.550;7.590;2022-10-16T04:31:29;5.30;;;2.30;;
57810;SDS011;43640;47.550;7.590;2022-10-16T04:33:30;9.75;;;2.38;;
57810;SDS011;43640;47.550;7.590;2022-10-16T04:35:32;7.90;;;2.58;;
57810;SDS011;43640;47.550;7.590;2022-10-16T04:37:33;5.95;;;2.80;;
57810;SDS011;43640;47.550;7.590;2022-10-16T04:39:34;7.00;;;1.83;;
57810;SDS011;43640;47.550;7.590;2022-10-16T04:41:36;3.58;;;2.20;;
57810;SDS011;43640;47.550;7.590;2022-10-16T04:43:37;5.25;;;2.00;;
57810;SDS011;43640;47.550;7.590;2022-10-16T04:45:39;6.00;;;2.50;;
57810;SDS011;43640;47.550;7.590;2022-10-16T04:47:40;4.40;;;2.40;;
57810;SDS011;43640;47.550;7.590;2022-10-16T04:49:41;4.15;;;2.28;;
57810;SDS011;43640;47.550;7.590;2022-10-16T04:51:43;2.33;;;2.13;;
57810;SDS011;43640;47.550;7.590;2022-10-16T04:53:44;3.22;;;2.45;;
57810;SDS011;43640;47.550;7.590;2022-10-16T04:55:46;5.88;;;2.28;;
57810;SDS011;43640;47.550;7.590;2022-10-16T04:57:47;7.20;;;2.67;;
57810;SDS011;43640;47.550;7.590;2022-10-16T04:59:48;5.35;;;2.40;;
57810;SDS011;43640;47.550;7.590;2022-10-16T05:01:50;5.38;;;2.10;;
57810;SDS011;43640;47.550;7.590;2022-10-16T05:03:51;5.65;;;2.40;;
57810;SDS011;43640;47.550;7.590;2022-10-16T05:05:52;5.90;;;2.35;;
57810;SDS011;43640;47.550;7.590;2022-10-16T05:07:54;3.08;;;2.20;;
57810;SDS011;43640;47.550;7.590;2022-10-16T05:09:55;4.53;;;2.03;;
57810;SDS011;43640;47.550;7.590;2022-10-16T05:11:56;3.53;;;2.17;;
57810;SDS011;43640;47.550;7.590;2022-10-16T05:13:58;3.58;;;2.15;;
57810;SDS011;43640;47.550;7.590;2022-10-16T05:15:59;4.97;;;2.28;;
57810;SDS011;43640;47.550;7.590;2022-10-16T05:18:01;3.80;;;2.15;;
57810;SDS011;43640;47.550;7.590;2022-10-16T05:20:02;3.63;;;2.05;;
57810;SDS011;43640;47.550;7.590;2022-10-16T05:22:04;2.45;;;2.20;;
57810;SDS011;43640;47.550;7.590;2022-10-16T05:24:05;4.20;;;2.30;;
57810;SDS011;43640;47.550;7.590;2022-10-16T05:26:07;5.10;;;2.47;;
57810;SDS011;43640;47.550;7.590;2022-10-16T05:28:08;4.18;;;2.17;;
57810;SDS011;43640;47.550;7.590;2022-10-16T05:30:10;6.13;;;1.95;;
57810;SDS011;43640;47.550;7.590;2022-10-16T05:32:13;3.75;;;2.30;;
57810;SDS011;43640;47.550;7.590;2022-10-16T05:34:15;4.43;;;2.08;;
57810;SDS011;43640;47.550;7.590;2022-10-16T05:36:16;3.70;;;2.30;;
57810;SDS011;43640;47.550;7.590;2022-10-16T05:38:19;4.70;;;2.28;;
57810;SDS011;43640;47.550;7.590;2022-10-16T05:40:20;7.28;;;2.67;;
57810;SDS011;43640;47.550;7.590;2022-10-16T05:42:21;3.45;;;2.15;;
57810;SDS011;43640;47.550;7.590;2022-10-16T05:44:23;3.40;;;1.80;;
57810;SDS011;43640;47.550;7.590;2022-10-16T05:46:24;2.05;;;1.80;;
57810;SDS011;43640;47.550;7.590;2022-10-16T05:48:26;2.55;;;2.17;;
57810;SDS011;43640;47.550;7.590;2022-10-16T05:50:27;4.45;;;2.20;;
57810;SDS011;43640;47.550;7.590;2022-10-16T05:52:29;7.20;;;2.30;;
57810;SDS011;43640;47.550;7.590;2022-10-16T05:54:30;4.35;;;2.45;;
57810;SDS011;43640;47.550;7.590;2022-10-16T05:56:31;4.57;;;2.42;;
57810;SDS011;43640;47.550;7.590;2022-10-16T05:58:33;4.18;;;2.25;;
57810;SDS011;43640;47.550;7.590;2022-10-16T06:00:36;4.45;;;2.00;;
57810;SDS011;43640;47.550;7.590;2022-10-16T06:02:37;4.72;;;2.20;;
57810;SDS011;43640;47.550;7.590;2022-10-16T06:04:38;6.68;;;2.22;;
57810;SDS011;43640;47.550;7.590;2022-10-16T06:06:40;5.65;;;2.35;;
57810;SDS011;43640;47.550;7.590;2022-10-16T06:08:41;4.55;;;2.22;;
57810;SDS011;43640;47.550;7.590;2022-10-16T06:10:43;5.03;;;2.67;;
57810;SDS011;43640;47.550;7.590;2022-10-16T06:12:45;4.43;;;2.38;;
57810;SDS011;43640;47.550;7.590;2022-10-16T06:14:46;3.72;;;2.17;;
57810;SDS011;43640;47.550;7.590;2022-10-16T06:16:48;3.88;;;2.10;;
57810;SDS011;43640;47.550;7.590;2022-10-16T06:18:52;6.97;;;2.22;;
57810;SDS011;43640;47.550;7.590;2022-10-16T06:20:54;4.45;;;1.92;;
57810;SDS011;43640;47.550;7.590;2022-10-16T06:22:56;3.58;;;2.22;;
57810;SDS011;43640;47.550;7.590;2022-10-16T06:24:58;5.72;;;2.65;;
57810;SDS011;43640;47.550;7.590;2022-10-16T06:26:59;3.90;;;1.98;;
57810;SDS011;43640;47.550;7.590;2022-10-16T06:29:00;3.85;;;2.42;;
57810;SDS011;43640;47.550;7.590;2022-10-16T06:31:02;5.65;;;2.53;;
57810;SDS011;43640;47.550;7.590;2022-10-16T06:33:08;3.40;;;2.33;;
57810;SDS011;43640;47.550;7.590;2022-10-16T06:35:09;6.07;;;2.50;;
57810;SDS011;43640;47.550;7.590;2022-10-16T06:37:11;3.90;;;2.53;;
57810;SDS011;43640;47.550;7.590;2022-10-16T06:39:12;7.53;;;2.97;;
57810;SDS011;43640;47.550;7.590;2022-10-16T06:41:17;5.45;;;2.20;;
57810;SDS011;43640;47.550;7.590;2022-10-16T06:43:19;8.48;;;2.80;;
57810;SDS011;43640;47.550;7.590;2022-10-16T06:45:20;5.30;;;2.63;;
57810;SDS011;43640;47.550;7.590;2022-10-16T06:47:22;3.05;;;2.25;;
57810;SDS011;43640;47.550;7.590;2022-10-16T06:49:23;3.13;;;2.33;;
57810;SDS011;43640;47.550;7.590;2022-10-16T06:51:24;5.97;;;2.13;;
57810;SDS011;43640;47.550;7.590;2022-10-16T06:53:27;5.88;;;2.10;;
57810;SDS011;43640;47.550;7.590;2022-10-16T06:55:28;3.08;;;2.10;;
57810;SDS011;43640;47.550;7.590;2022-10-16T06:57:30;5.40;;;2.20;;
57810;SDS011;43640;47.550;7.590;2022-10-16T06:59:31;2.40;;;1.83;;
57810;SDS011;43640;47.550;7.590;2022-10-16T07:01:32;5.35;;;2.25;;
57810;SDS011;43640;47.550;7.590;2022-10-16T07:03:37;3.17;;;2.47;;
57810;SDS011;43640;47.550;7.590;2022-10-16T07:05:39;5.25;;;2.30;;
57810;SDS011;43640;47.550;7.590;2022-10-16T07:07:42;3.03;;;2.03;;
57810;SDS011;43640;47.550;7.590;2022-10-16T07:09:44;5.63;;;1.98;;
57810;SDS011;43640;47.550;7.590;2022-10-16T07:11:45;3.90;;;2.10;;
57810;SDS011;43640;47.550;7.590;2022-10-16T07:13:47;4.95;;;2.42;;
57810;SDS011;43640;47.550;7.590;2022-10-16T07:15:55;3.60;;;2.50;;
57810;SDS011;43640;47.550;7.590;2022-10-16T07:17:56;4.30;;;2.30;;
57810;SDS011;43640;47.550;7.590;2022-10-16T07:19:57;5.53;;;2.88;;
57810;SDS011;43640;47.550;7.590;2022-10-16T07:21:59;6.50;;;3.03;;
57810;SDS011;43640;47.550;7.590;2022-10-16T07:24:00;6.30;;;3.00;;
57810;SDS011;43640;47.550;7.590;2022-10-16T07:26:05;6.55;;;2.50;;
57810;SDS011;43640;47.550;7.590;2022-10-16T07:28:06;3.75;;;2.30;;
57810;SDS011;43640;47.550;7.590;2022-10-16T07:30:08;6.03;;;2.63;;
57810;SDS011;43640;47.550;7.590;2022-10-16T07:32:10;5.50;;;2.28;;
57810;SDS011;43640;47.550;7.590;2022-10-16T07:34:11;3.45;;;2.47;;
57810;SDS011;43640;47.550;7.590;2022-10-16T07:36:14;5.85;;;2.08;;
57810;SDS011;43640;47.550;7.590;2022-10-16T07:38:17;3.45;;;2.58;;
57810;SDS011;43640;47.550;7.590;2022-10-16T07:40:18;4.82;;;2.53;;
57810;SDS011;43640;47.550;7.590;2022-10-16T07:42:19;5.43;;;2.60;;
57810;SDS011;43640;47.550;7.590;2022-10-16T07:44:21;3.50;;;2.80;;
57810;SDS011;43640;47.550;7.590;2022-10-16T07:46:22;6.40;;;2.47;;
57810;SDS011;43640;47.550;7.590;2022-10-16T07:48:26;5.65;;;2.47;;
57810;SDS011;43640;47.550;7.590;2022-10-16T07:50:27;3.25;;;2.10;;
57810;SDS011;43640;47.550;7.590;2022-10-16T07:52:29;6.30;;;2.60;;
57810;SDS011;43640;47.550;7.590;2022-10-16T07:54:30;4.13;;;2.35;;
57810;SDS011;43640;47.550;7.590;2022-10-16T07:56:31;4.63;;;2.75;;
57810;SDS011;43640;47.550;7.590;2022-10-16T07:58:34;4.22;;;2.42;;
57810;SDS011;43640;47.550;7.590;2022-10-16T08:00:38;4.13;;;2.95;;
57810;SDS011;43640;47.550;7.590;2022-10-16T08:02:40;2.78;;;2.30;;
57810;SDS011;43640;47.550;7.590;2022-10-16T08:04:41;7.90;;;2.35;;
57810;SDS011;43640;47.550;7.590;2022-10-16T08:06:42;3.28;;;2.47;;
57810;SDS011;43640;47.550;7.590;2022-10-16T08:08:44;3.60;;;2.42;;
57810;SDS011;43640;47.550;7.590;2022-10-16T08:10:45;5.93;;;2.72;;
57810;SDS011;43640;47.550;7.590;2022-10-16T08:12:46;3.53;;;1.95;;
57810;SDS011;43640;47.550;7.590;2022-10-16T08:14:48;4.68;;;2.17;;
57810;SDS011;43640;47.550;7.590;2022-10-16T08:16:49;3.83;;;2.05;;
57810;SDS011;43640;47.550;7.590;2022-10-16T08:18:51;4.63;;;2.45;;
57810;SDS011;43640;47.550;7.590;2022-10-16T08:20:56;5.45;;;2.10;;
57810;SDS011;43640;47.550;7.590;2022-10-16T08:22:58;6.28;;;2.25;;
57810;SDS011;43640;47.550;7.590;2022-10-16T08:25:00;5.70;;;2.50;;
57810;SDS011;43640;47.550;7.590;2022-10-16T08:27:01;4.32;;;2.15;;
57810;SDS011;43640;47.550;7.590;2022-10-16T08:29:03;3.17;;;2.28;;
57810;SDS011;43640;47.550;7.590;2022-10-16T08:31:09;3.53;;;2.58;;
57810;SDS011;43640;47.550;7.590;2022-10-16T08:33:11;3.67;;;2.05;;
57810;SDS011;43640;47.550;7.590;2022-10-16T08:35:12;4.10;;;2.20;;
57810;SDS011;43640;47.550;7.590;2022-10-16T08:37:14;2.35;;;2.00;;
57810;SDS011;43640;47.550;7.590;2022-10-16T08:39:15;3.63;;;2.10;;
57810;SDS011;43640;47.550;7.590;2022-10-16T08:43:21;4.18;;;2.55;;
57810;SDS011;43640;47.550;7.590;2022-10-16T08:45:34;3.97;;;2.60;;
57810;SDS011;43640;47.550;7.590;2022-10-16T08:47:43;5.57;;;3.58;;
57810;SDS011;43640;47.550;7.590;2022-10-16T08:50:29;6.25;;;2.10;;
57810;SDS011;43640;47.550;7.590;2022-10-16T08:52:11;6.60;;;3.05;;
57810;SDS011;43640;47.550;7.590;2022-10-16T08:56:21;5.03;;;2.08;;
57810;SDS011;43640;47.550;7.590;2022-10-16T08:58:23;5.97;;;2.80;;
57810;SDS011;43640;47.550;7.590;2022-10-16T09:00:27;2.80;;;1.73;;
57810;SDS011;43640;47.550;7.590;2022-10-16T09:02:35;4.47;;;2.20;;
57810;SDS011;43640;47.550;7.590;2022-10-16T09:04:46;4.00;;;2.50;;
57810;SDS011;43640;47.550;7.590;2022-10-16T09:11:39;3.95;;;2.40;;
57810;SDS011;43640;47.550;7.590;2022-10-16T09:15:52;4.47;;;2.55;;
57810;SDS011;43640;47.550;7.590;2022-10-16T09:22:25;4.35;;;2.38;;
57810;SDS011;43640;47.550;7.590;2022-10-16T09:24:27;4.95;;;1.90;;
57810;SDS011;43640;47.550;7.590;2022-10-16T09:26:29;2.50;;;1.85;;
57810;SDS011;43640;47.550;7.590;2022-10-16T09:28:31;3.03;;;1.90;;
57810;SDS011;43640;47.550;7.590;2022-10-16T09:30:32;3.30;;;2.10;;
57810;SDS011;43640;47.550;7.590;2022-10-16T09:32:34;3.30;;;1.65;;
57810;SDS011;43640;47.550;7.590;2022-10-16T09:34:36;3.83;;;1.95;;
57810;SDS011;43640;47.550;7.590;2022-10-16T09:36:42;2.85;;;2.05;;
57810;SDS011;43640;47.550;7.590;2022-10-16T09:38:44;2.33;;;1.95;;
57810;SDS011;43640;47.550;7.590;2022-10-16T09:40:45;1.88;;;1.65;;
57810;SDS011;43640;47.550;7.590;2022-10-16T09:42:54;2.83;;;1.73;;
57810;SDS011;43640;47.550;7.590;2022-10-16T09:44:57;2.08;;;1.60;;
57810;SDS011;43640;47.550;7.590;2022-10-16T09:47:05;2.80;;;1.55;;
57810;SDS011;43640;47.550;7.590;2022-10-16T09:51:22;4.10;;;1.73;;
57810;SDS011;43640;47.550;7.590;2022-10-16T09:53:24;3.30;;;1.58;;
57810;SDS011;43640;47.550;7.590;2022-10-16T09:55:26;7.07;;;1.90;;
57810;SDS011;43640;47.550;7.590;2022-10-16T09:57:28;3.80;;;1.77;;
57810;SDS011;43640;47.550;7.590;2022-10-16T09:59:31;4.15;;;1.50;;
57810;SDS011;43640;47.550;7.590;2022-10-16T10:01:36;3.45;;;1.70;;
57810;SDS011;43640;47.550;7.590;2022-10-16T10:03:42;3.00;;;1.50;;
57810;SDS011;43640;47.550;7.590;2022-10-16T10:05:47;4.63;;;2.10;;
57810;SDS011;43640;47.550;7.590;2022-10-16T10:07:55;4.68;;;2.00;;
57810;SDS011;43640;47.550;7.590;2022-10-16T10:09:57;8.90;;;2.10;;
57810;SDS011;43640;47.550;7.590;2022-10-16T10:11:59;3.08;;;1.60;;
57810;SDS011;43640;47.550;7.590;2022-10-16T10:14:05;3.15;;;1.52;;
57810;SDS011;43640;47.550;7.590;2022-10-16T10:16:07;2.90;;;1.35;;
57810;SDS011;43640;47.550;7.590;2022-10-16T10:18:20;3.70;;;1.60;;
57810;SDS011;43640;47.550;7.590;2022-10-16T10:20:26;1.85;;;1.67;;
57810;SDS011;43640;47.550;7.590;2022-10-16T10:24:43;2.75;;;1.70;;
57810;SDS011;43640;47.550;7.590;2022-10-16T10:26:53;3.00;;;1.70;;
57810;SDS011;43640;47.550;7.590;2022-10-16T10:31:03;3.55;;;1.70;;
57810;SDS011;43640;47.550;7.590;2022-10-16T10:42:33;3.08;;;1.40;;
57810;SDS011;43640;47.550;7.590;2022-10-16T10:47:24;3.88;;;1.60;;
57810;SDS011;43640;47.550;7.590;2022-10-16T10:51:23;3.80;;;1.40;;
57810;SDS011;43640;47.550;7.590;2022-10-16T10:55:47;4.18;;;1.88;;
57810;SDS011;43640;47.550;7.590;2022-10-16T10:58:12;3.50;;;1.50;;
57810;SDS011;43640;47.550;7.590;2022-10-16T11:07:15;7.15;;;2.97;;
57810;SDS011;43640;47.550;7.590;2022-10-16T11:09:21;3.28;;;2.67;;
57810;SDS011;43640;47.550;7.590;2022-10-16T11:11:44;3.83;;;1.80;;
57810;SDS011;43640;47.550;7.590;2022-10-16T11:13:54;2.80;;;1.50;;
57810;SDS011;43640;47.550;7.590;2022-10-16T11:16:00;4.43;;;1.50;;
57810;SDS011;43640;47.550;7.590;2022-10-16T11:18:05;5.72;;;1.90;;
57810;SDS011;43640;47.550;7.590;2022-10-16T11:20:17;2.42;;;1.60;;
57810;SDS011;43640;47.550;7.590;2022-10-16T11:22:22;3.80;;;1.77;;
57810;SDS011;43640;47.550;7.590;2022-10-16T11:24:35;2.83;;;1.70;;
57810;SDS011;43640;47.550;7.590;2022-10-16T11:26:39;3.22;;;1.98;;
57810;SDS011;43640;47.550;7.590;2022-10-16T11:28:44;3.95;;;1.33;;
57810;SDS011;43640;47.550;7.590;2022-10-16T11:34:57;3.08;;;1.52;;
57810;SDS011;43640;47.550;7.590;2022-10-16T11:37:05;4.40;;;1.65;;
57810;SDS011;43640;47.550;7.590;2022-10-16T11:39:28;6.65;;;1.73;;
57810;SDS011;43640;47.550;7.590;2022-10-16T11:43:32;2.42;;;1.65;;
57810;SDS011;43640;47.550;7.590;2022-10-16T11:47:40;2.17;;;1.60;;
57810;SDS011;43640;47.550;7.590;2022-10-16T11:50:01;2.03;;;1.65;;
57810;SDS011;43640;47.550;7.590;2022-10-16T11:56:23;5.63;;;2.03;;
57810;SDS011;43640;47.550;7.590;2022-10-16T11:58:32;3.05;;;2.05;;
57810;SDS011;43640;47.550;7.590;2022-10-16T12:00:38;4.22;;;1.95;;
57810;SDS011;43640;47.550;7.590;2022-10-16T12:04:46;2.05;;;1.63;;
57810;SDS011;43640;47.550;7.590;2022-10-16T12:07:13;5.40;;;1.50;;
57810;SDS011;43640;47.550;7.590;2022-10-16T12:09:14;3.05;;;1.55;;
57810;SDS011;43640;47.550;7.590;2022-10-16T12:13:39;3.63;;;2.38;;
57810;SDS011;43640;47.550;7.590;2022-10-16T12:15:40;2.53;;;1.60;;
57810;SDS011;43640;47.550;7.590;2022-10-16T12:17:59;2.63;;;1.50;;
57810;SDS011;43640;47.550;7.590;2022-10-16T12:20:12;2.75;;;1.50;;
57810;SDS011;43640;47.550;7.590;2022-10-16T12:22:16;2.30;;;1.60;;
57810;SDS011;43640;47.550;7.590;2022-10-16T12:28:31;4.00;;;1.30;;
57810;SDS011;43640;47.550;7.590;2022-10-16T12:30:34;2.78;;;1.50;;
57810;SDS011;43640;47.550;7.590;2022-10-16T12:32:37;6.15;;;1.77;;
57810;SDS011;43640;47.550;7.590;2022-10-16T12:34:48;7.03;;;1.25;;
57810;SDS011;43640;47.550;7.590;2022-10-16T12:36:50;1.88;;;1.17;;
57810;SDS011;43640;47.550;7.590;2022-10-16T12:38:54;4.22;;;1.35;;
57810;SDS011;43640;47.550;7.590;2022-10-16T12:40:59;2.67;;;1.23;;
57810;SDS011;43640;47.550;7.590;2022-10-16T12:47:37;2.05;;;1.20;;
57810;SDS011;43640;47.550;7.590;2022-10-16T12:49:47;1.38;;;1.27;;
57810;SDS011;43640;47.550;7.590;2022-10-16T12:51:49;2.17;;;1.00;;
57810;SDS011;43640;47.550;7.590;2022-10-16T12:54:04;2.65;;;0.93;;
57810;SDS011;43640;47.550;7.590;2022-10-16T12:56:10;3.40;;;1.10;;
57810;SDS011;43640;47.550;7.590;2022-10-16T13:00:23;4.90;;;1.00;;
57810;SDS011;43640;47.550;7.590;2022-10-16T13:12:48;3.67;;;1.00;;
57810;SDS011;43640;47.550;7.590;2022-10-16T13:27:30;3.13;;;1.40;;
57810;SDS011;43640;47.550;7.590;2022-10-16T13:29:34;3.60;;;1.50;;
57810;SDS011;43640;47.550;7.590;2022-10-16T13:31:37;3.28;;;1.17;;
57810;SDS011;43640;47.550;7.590;2022-10-16T13:33:39;4.00;;;1.45;;
57810;SDS011;43640;47.550;7.590;2022-10-16T13:35:49;2.42;;;1.13;;
57810;SDS011;43640;47.550;7.590;2022-10-16T13:38:02;1.40;;;1.30;;
57810;SDS011;43640;47.550;7.590;2022-10-16T13:40:09;6.22;;;1.63;;
57810;SDS011;43640;47.550;7.590;2022-10-16T13:42:14;2.00;;;1.33;;
57810;SDS011;43640;47.550;7.590;2022-10-16T13:44:19;2.05;;;1.10;;
57810;SDS011;43640;47.550;7.590;2022-10-16T13:46:22;4.68;;;1.70;;
57810;SDS011;43640;47.550;7.590;2022-10-16T13:48:23;1.95;;;1.20;;
57810;SDS011;43640;47.550;7.590;2022-10-16T13:50:25;1.88;;;1.63;;
57810;SDS011;43640;47.550;7.590;2022-10-16T13:52:26;4.95;;;1.67;;
57810;SDS011;43640;47.550;7.590;2022-10-16T13:54:28;1.33;;;1.20;;
57810;SDS011;43640;47.550;7.590;2022-10-16T13:56:30;1.55;;;1.33;;
57810;SDS011;43640;47.550;7.590;2022-10-16T13:58:32;1.20;;;1.10;;
57810;SDS011;43640;47.550;7.590;2022-10-16T14:00:33;1.77;;;1.30;;
57810;SDS011;43640;47.550;7.590;2022-10-16T14:02:37;1.50;;;1.40;;
57810;SDS011;43640;47.550;7.590;2022-10-16T14:04:40;2.78;;;1.20;;
57810;SDS011;43640;47.550;7.590;2022-10-16T14:06:43;2.55;;;1.50;;
57810;SDS011;43640;47.550;7.590;2022-10-16T14:08:45;2.00;;;1.02;;
57810;SDS011;43640;47.550;7.590;2022-10-16T14:10:50;1.20;;;1.10;;
57810;SDS011;43640;47.550;7.590;2022-10-16T14:13:36;2.33;;;1.20;;
57810;SDS011;43640;47.550;7.590;2022-10-16T14:15:17;1.83;;;1.30;;
57810;SDS011;43640;47.550;7.590;2022-10-16T14:17:22;2.30;;;1.20;;
57810;SDS011;43640;47.550;7.590;2022-10-16T14:19:25;1.40;;;1.20;;
57810;SDS011;43640;47.550;7.590;2022-10-16T14:21:28;3.28;;;1.35;;
57810;SDS011;43640;47.550;7.590;2022-10-16T14:23:30;3.28;;;1.10;;
57810;SDS011;43640;47.550;7.590;2022-10-16T14:25:32;2.17;;;1.23;;
57810;SDS011;43640;47.550;7.590;2022-10-16T14:27:34;2.88;;;1.40;;
57810;SDS011;43640;47.550;7.590;2022-10-16T14:29:36;2.50;;;1.40;;
57810;SDS011;43640;47.550;7.590;2022-10-16T14:31:40;1.85;;;1.20;;
57810;SDS011;43640;47.550;7.590;2022-10-16T14:33:41;2.88;;;1.38;;
57810;SDS011;43640;47.550;7.590;2022-10-16T14:35:43;2.88;;;1.40;;
57810;SDS011;43640;47.550;7.590;2022-10-16T14:37:45;2.53;;;1.20;;
57810;SDS011;43640;47.550;7.590;2022-10-16T14:39:49;1.58;;;1.10;;
57810;SDS011;43640;47.550;7.590;2022-10-16T14:41:51;3.22;;;1.50;;
57810;SDS011;43640;47.550;7.590;2022-10-16T14:44:01;2.97;;;1.58;;
57810;SDS011;43640;47.550;7.590;2022-10-16T14:46:05;3.38;;;1.55;;
57810;SDS011;43640;47.550;7.590;2022-10-16T14:48:14;1.75;;;1.35;;
57810;SDS011;43640;47.550;7.590;2022-10-16T14:50:20;3.70;;;1.65;;
57810;SDS011;43640;47.550;7.590;2022-10-16T14:52:21;2.35;;;1.63;;
57810;SDS011;43640;47.550;7.590;2022-10-16T14:54:23;3.53;;;1.55;;
57810;SDS011;43640;47.550;7.590;2022-10-16T14:56:25;1.50;;;1.30;;
57810;SDS011;43640;47.550;7.590;2022-10-16T14:58:26;2.80;;;1.40;;
57810;SDS011;43640;47.550;7.590;2022-10-16T15:00:27;1.50;;;1.27;;
57810;SDS011;43640;47.550;7.590;2022-10-16T15:02:33;2.45;;;1.10;;
57810;SDS011;43640;47.550;7.590;2022-10-16T15:04:35;2.15;;;1.33;;
57810;SDS011;43640;47.550;7.590;2022-10-16T15:06:36;4.57;;;1.58;;
57810;SDS011;43640;47.550;7.590;2022-10-16T15:08:38;4.53;;;1.98;;